createdAt,value
2022-10-23T00:02:02.422Z,2.92
2022-10-23T00:05:07.137Z,2.30
2022-10-23T00:08:09.729Z,2.67
2022-10-23T00:11:14.269Z,2.70
2022-10-23T00:14:18.278Z,3.03
2022-10-23T00:17:20.977Z,2.30
2022-10-23T00:20:24.991Z,3.40
2022-10-23T00:23:27.593Z,2.73
2022-10-23T00:26:30.350Z,2.90
2022-10-23T00:29:32.956Z,2.40
2022-10-23T00:32:35.785Z,2.63
2022-10-23T00:35:41.835Z,2.58
2022-10-23T00:38:45.015Z,2.70
2022-10-23T00:41:47.617Z,2.60
2022-10-23T00:45:10.158Z,2.90
2022-10-23T00:48:12.768Z,2.30
2022-10-23T00:51:16.827Z,2.40
2022-10-23T00:54:25.279Z,2.43
2022-10-23T01:03:35.260Z,2.03
2022-10-23T01:06:44.710Z,2.42
2022-10-23T01:09:52.504Z,2.23
2022-10-23T01:13:02.308Z,2.83
2022-10-23T01:16:10.169Z,2.33
2022-10-23T01:19:20.162Z,2.03
2022-10-23T01:22:49.478Z,2.40
2022-10-23T01:26:00.583Z,2.03
2022-10-23T01:29:10.098Z,2.97
2022-10-23T01:32:15.149Z,2.70
2022-10-23T01:35:20.431Z,2.80
2022-10-23T01:38:27.084Z,3.00
2022-10-23T01:41:31.490Z,2.33
2022-10-23T01:44:38.798Z,2.47
2022-10-23T01:47:42.952Z,2.77
2022-10-23T01:50:46.644Z,2.93
2022-10-23T01:53:50.877Z,2.58
2022-10-23T01:56:54.173Z,3.47
2022-10-23T02:00:00.485Z,2.50
2022-10-23T02:03:04.581Z,2.87
2022-10-23T02:06:07.667Z,2.27
2022-10-23T02:09:10.340Z,2.63
2022-10-23T02:12:15.404Z,2.63
2022-10-23T02:15:25.835Z,2.97
2022-10-23T02:18:34.277Z,2.70
2022-10-23T02:21:42.462Z,2.70
2022-10-23T02:24:48.519Z,2.77
2022-10-23T02:27:54.036Z,2.40
2022-10-23T02:31:00.021Z,2.27
2022-10-23T02:34:03.030Z,2.83
2022-10-23T02:37:05.795Z,2.22
2022-10-23T02:40:10.612Z,2.35
2022-10-23T02:43:16.784Z,1.90
2022-10-23T02:46:26.092Z,2.50
2022-10-23T02:49:32.758Z,2.30
2022-10-23T02:52:39.834Z,2.40
2022-10-23T02:55:53.976Z,2.20
2022-10-23T02:59:01.351Z,3.33
2022-10-23T03:02:08.365Z,2.17
2022-10-23T03:05:13.436Z,2.70
2022-10-23T03:08:16.124Z,2.03
2022-10-23T03:11:18.896Z,2.03
2022-10-23T03:14:21.533Z,2.00
2022-10-23T03:17:26.333Z,2.10
2022-10-23T03:20:29.052Z,2.20
2022-10-23T03:23:31.732Z,2.30
2022-10-23T03:26:34.487Z,2.05
2022-10-23T03:29:37.196Z,2.22
2022-10-23T03:32:41.402Z,1.98
2022-10-23T03:35:44.399Z,2.30
2022-10-23T03:38:47.144Z,1.80
2022-10-23T03:41:49.877Z,1.80
2022-10-23T03:44:52.534Z,1.88
2022-10-23T03:47:56.570Z,1.95
2022-10-23T03:50:59.237Z,1.70
2022-10-23T03:54:02.037Z,4.53
2022-10-23T03:57:08.406Z,1.90
2022-10-23T04:00:12.246Z,2.30
2022-10-23T04:03:16.226Z,2.00
2022-10-23T04:06:18.884Z,2.17
2022-10-23T04:09:21.569Z,2.00
2022-10-23T04:12:25.083Z,2.00
2022-10-23T04:15:27.664Z,1.95
2022-10-23T04:18:31.615Z,2.10
2022-10-23T04:21:34.321Z,2.07
2022-10-23T04:24:37.030Z,2.15
2022-10-23T04:27:39.871Z,2.08
2022-10-23T04:30:42.709Z,2.20
2022-10-23T04:33:46.672Z,1.75
2022-10-23T04:36:49.348Z,1.90
2022-10-23T04:39:52.016Z,1.73
2022-10-23T04:42:54.633Z,1.60
2022-10-23T04:45:57.348Z,2.40
2022-10-23T04:49:01.240Z,2.23
2022-10-23T04:52:04.346Z,2.50
2022-10-23T04:55:09.069Z,2.10
2022-10-23T04:58:11.874Z,2.53
2022-10-23T05:01:14.656Z,2.33
2022-10-23T05:04:18.759Z,2.65
2022-10-23T05:10:29.271Z,3.13
2022-10-23T05:13:34.890Z,3.40
2022-10-23T05:16:40.255Z,3.40
2022-10-23T05:19:48.750Z,3.80
2022-10-23T05:22:53.061Z,3.00
2022-10-23T05:25:55.693Z,2.60
2022-10-23T05:28:58.595Z,3.00
2022-10-23T05:32:03.638Z,3.50
2022-10-23T05:35:11.172Z,3.60
2022-10-23T05:38:14.736Z,3.27
2022-10-23T05:44:19.878Z,2.60
2022-10-23T05:47:22.566Z,3.55
2022-10-23T05:50:26.693Z,2.72
2022-10-23T05:53:29.373Z,4.40
2022-10-23T05:56:32.122Z,2.63
2022-10-23T05:59:34.770Z,2.03
2022-10-23T06:02:37.593Z,2.17
2022-10-23T06:05:41.904Z,2.08
2022-10-23T06:08:44.725Z,2.30
2022-10-23T06:11:48.331Z,2.67
2022-10-23T06:17:54.751Z,2.45
2022-10-23T06:21:01.514Z,1.63
2022-10-23T06:24:04.245Z,2.63
2022-10-23T06:27:06.882Z,2.75
2022-10-23T06:30:10.552Z,1.70
2022-10-23T06:33:13.299Z,1.73
2022-10-23T06:36:17.373Z,1.70
2022-10-23T06:39:21.321Z,2.40
2022-10-23T06:42:24.192Z,2.10
2022-10-23T06:45:27.067Z,1.88
2022-10-23T06:48:29.686Z,2.05
2022-10-23T06:51:33.786Z,2.03
2022-10-23T06:54:36.491Z,1.90
2022-10-23T06:57:39.219Z,2.08
2022-10-23T07:00:41.995Z,2.15
2022-10-23T07:03:45.045Z,1.75
2022-10-23T07:06:49.164Z,2.60
2022-10-23T07:09:51.800Z,2.10
2022-10-23T07:12:54.526Z,2.38
2022-10-23T07:15:57.289Z,2.75
2022-10-23T07:19:01.310Z,2.22
2022-10-23T07:22:05.427Z,2.13
2022-10-23T07:25:08.832Z,2.83
2022-10-23T07:28:11.403Z,2.35
2022-10-23T07:31:14.239Z,2.30
2022-10-23T07:34:17.018Z,2.05
2022-10-23T07:37:21.146Z,2.33
2022-10-23T07:40:23.919Z,2.47
2022-10-23T07:43:26.660Z,2.33
2022-10-23T07:46:29.298Z,2.63
2022-10-23T07:49:32.283Z,2.72
2022-10-23T07:52:37.348Z,2.83
2022-10-23T07:55:39.948Z,2.63
2022-10-23T07:58:42.624Z,2.25
2022-10-23T08:01:47.164Z,2.63
2022-10-23T08:04:50.273Z,3.50
2022-10-23T08:07:54.265Z,2.70
2022-10-23T08:10:56.985Z,2.73
2022-10-23T08:14:00.091Z,2.58
2022-10-23T08:17:03.289Z,2.47
2022-10-23T08:20:07.233Z,3.20
2022-10-23T08:23:12.738Z,3.90
2022-10-23T08:26:16.190Z,2.87
2022-10-23T08:32:21.434Z,2.80
2022-10-23T08:35:24.282Z,2.50
2022-10-23T08:38:28.338Z,2.50
2022-10-23T08:41:33.767Z,2.60
2022-10-23T08:44:41.574Z,2.50
2022-10-23T08:47:47.904Z,2.30
2022-10-23T08:50:53.163Z,2.73
2022-10-23T08:54:01.786Z,2.20
2022-10-23T08:57:05.656Z,2.20
2022-10-23T09:00:12.517Z,2.13
2022-10-23T09:03:15.269Z,2.17
2022-10-23T09:06:36.406Z,2.15
2022-10-23T09:09:53.578Z,2.10
2022-10-23T09:12:58.676Z,2.30
2022-10-23T09:16:05.139Z,1.60
2022-10-23T09:19:13.749Z,2.90
2022-10-23T09:22:16.316Z,2.30
2022-10-23T09:25:22.660Z,1.98
2022-10-23T09:28:26.801Z,2.10
2022-10-23T09:31:29.469Z,1.77
2022-10-23T09:34:33.636Z,2.17
2022-10-23T09:37:37.568Z,1.30
2022-10-23T09:40:44.287Z,1.93
2022-10-23T09:43:47.114Z,1.50
2022-10-23T09:49:59.525Z,1.60
2022-10-23T09:53:02.467Z,1.13
2022-10-23T09:56:11.878Z,1.08
2022-10-23T09:59:22.862Z,1.30
2022-10-23T10:02:28.999Z,1.20
2022-10-23T10:05:34.358Z,1.40
2022-10-23T10:08:41.126Z,1.20
2022-10-23T10:11:47.578Z,1.50
2022-10-23T10:14:56.808Z,1.20
2022-10-23T10:18:07.010Z,1.47
2022-10-23T10:21:15.047Z,1.77
2022-10-23T10:24:21.280Z,1.30
2022-10-23T10:27:35.966Z,1.10
2022-10-23T10:30:45.524Z,1.43
2022-10-23T10:33:54.817Z,1.50
2022-10-23T10:36:59.185Z,1.30
2022-10-23T10:40:08.564Z,1.40
2022-10-23T10:43:26.374Z,1.57
2022-10-23T10:46:33.086Z,1.37
2022-10-23T10:49:37.967Z,2.27
2022-10-23T10:52:49.277Z,2.37
2022-10-23T10:55:53.611Z,1.60
2022-10-23T10:58:59.639Z,1.30
2022-10-23T11:02:06.575Z,1.40
2022-10-23T11:05:16.937Z,1.90
2022-10-23T11:08:22.356Z,1.70
2022-10-23T11:11:27.641Z,1.60
2022-10-23T11:14:34.174Z,1.30
2022-10-23T11:17:39.081Z,1.80
2022-10-23T11:20:53.573Z,1.70
2022-10-23T11:27:29.304Z,1.50
2022-10-23T11:30:37.146Z,2.03
2022-10-23T11:34:07.015Z,1.80
2022-10-23T11:37:09.895Z,1.60
2022-10-23T11:40:23.138Z,1.30
2022-10-23T11:43:30.615Z,1.52
2022-10-23T11:46:36.609Z,1.43
2022-10-23T11:49:39.366Z,1.30
2022-10-23T11:56:31.126Z,1.63
2022-10-23T11:59:35.435Z,1.27
2022-10-23T12:02:43.261Z,1.60
2022-10-23T12:05:46.533Z,1.38
2022-10-23T12:12:18.069Z,1.60
2022-10-23T12:15:22.788Z,1.88
2022-10-23T12:18:27.484Z,1.55
2022-10-23T12:21:36.303Z,1.77
2022-10-23T12:24:56.895Z,2.38
2022-10-23T12:28:02.433Z,2.08
2022-10-23T12:31:17.861Z,1.73
2022-10-23T12:34:33.040Z,2.70
2022-10-23T12:37:56.096Z,1.48
2022-10-23T12:41:04.678Z,1.40
2022-10-23T12:44:12.774Z,1.48
2022-10-23T12:47:18.679Z,2.10
2022-10-23T12:50:24.537Z,1.67
2022-10-23T12:53:27.491Z,1.70
2022-10-23T12:56:36.981Z,1.17
2022-10-23T12:59:41.801Z,1.80
2022-10-23T13:02:44.555Z,1.23
2022-10-23T13:05:48.803Z,0.95
2022-10-23T13:08:52.456Z,1.00
2022-10-23T13:11:55.955Z,1.20
2022-10-23T13:15:03.449Z,1.30
2022-10-23T13:18:07.992Z,1.38
2022-10-23T13:21:18.552Z,1.30
2022-10-23T13:24:23.150Z,2.80
2022-10-23T13:27:27.798Z,1.15
2022-10-23T13:30:32.504Z,1.15
2022-10-23T13:33:37.536Z,1.20
2022-10-23T13:36:53.546Z,1.73
2022-10-23T13:40:04.486Z,1.88
2022-10-23T13:43:15.683Z,1.40
2022-10-23T13:46:19.402Z,2.08
2022-10-23T13:49:22.226Z,1.40
2022-10-23T13:55:29.233Z,2.30
2022-10-23T13:58:32.326Z,1.95
2022-10-23T14:01:36.365Z,1.63
2022-10-23T14:04:39.429Z,2.00
2022-10-23T14:10:47.203Z,2.17
2022-10-23T14:13:50.406Z,2.80
2022-10-23T14:16:53.200Z,2.03
2022-10-23T14:19:55.950Z,1.63
2022-10-23T14:22:59.955Z,2.22
2022-10-23T14:26:03.621Z,2.80
2022-10-23T14:29:09.885Z,2.03
2022-10-23T14:32:14.155Z,1.40
2022-10-23T14:35:17.071Z,1.38
2022-10-23T14:38:21.353Z,1.83
2022-10-23T14:41:24.342Z,1.80
2022-10-23T14:44:27.080Z,1.65
2022-10-23T14:47:29.933Z,2.63
2022-10-23T14:50:32.985Z,1.95
2022-10-23T14:53:37.007Z,2.40
2022-10-23T14:56:40.812Z,2.20
2022-10-23T14:59:43.761Z,2.40
2022-10-23T15:02:46.779Z,2.17
2022-10-23T15:08:55.639Z,2.10
2022-10-23T15:11:59.163Z,3.40
2022-10-23T15:15:02.552Z,2.27
2022-10-23T15:18:06.110Z,2.70
2022-10-23T15:21:10.145Z,2.30
2022-10-23T15:24:14.297Z,2.40
2022-10-23T15:27:16.934Z,2.30
2022-10-23T15:30:19.752Z,2.20
2022-10-23T15:33:22.721Z,1.98
2022-10-23T15:36:25.657Z,1.90
2022-10-23T15:39:33.752Z,2.08
2022-10-23T15:42:36.432Z,2.10
2022-10-23T15:45:39.157Z,2.08
2022-10-23T15:48:42.611Z,2.58
2022-10-23T15:51:46.664Z,2.47
2022-10-23T15:54:51.340Z,2.43
2022-10-23T15:57:54.876Z,3.03
2022-10-23T16:00:59.208Z,2.70
2022-10-23T16:04:03.119Z,4.63
2022-10-23T16:07:07.250Z,2.70
2022-10-23T16:10:12.351Z,4.20
2022-10-23T16:13:15.778Z,2.97
2022-10-23T16:16:19.656Z,3.90
2022-10-23T16:19:22.868Z,6.60
2022-10-23T16:25:30.606Z,5.78
2022-10-23T16:28:34.313Z,5.67
2022-10-23T16:31:38.036Z,4.27
2022-10-23T16:34:41.887Z,4.27
2022-10-23T16:37:45.435Z,2.97
2022-10-23T16:40:54.523Z,3.23
2022-10-23T16:43:58.049Z,3.77
2022-10-23T16:47:02.167Z,3.13
2022-10-23T16:50:05.946Z,3.53
2022-10-23T16:53:08.860Z,1.43
2022-10-23T16:56:15.267Z,1.30
2022-10-23T16:59:18.139Z,1.43
2022-10-23T17:02:21.238Z,1.92
2022-10-23T17:08:26.539Z,3.10
2022-10-23T17:11:32.527Z,2.65
2022-10-23T17:14:35.867Z,3.27
2022-10-23T17:17:39.150Z,2.60
2022-10-23T17:23:45.974Z,3.22
2022-10-23T17:26:50.287Z,2.70
2022-10-23T17:29:53.586Z,2.97
2022-10-23T17:36:04.866Z,4.40
2022-10-23T17:39:09.198Z,2.13
2022-10-23T17:42:13.314Z,2.20
2022-10-23T17:45:16.048Z,2.00
2022-10-23T17:48:18.672Z,2.75
2022-10-23T17:51:23.192Z,2.72
2022-10-23T17:54:27.884Z,2.40
2022-10-23T17:57:31.999Z,2.10
2022-10-23T18:00:36.632Z,2.37
2022-10-23T18:03:39.894Z,2.87
2022-10-23T18:12:50.172Z,3.00
2022-10-23T18:15:52.777Z,2.87
2022-10-23T18:18:55.418Z,3.30
2022-10-23T18:21:58.160Z,2.00
2022-10-23T18:25:01.028Z,3.05
2022-10-23T18:28:05.440Z,2.95
2022-10-23T18:31:09.475Z,5.20
2022-10-23T18:34:15.829Z,19.53
2022-10-23T18:37:18.718Z,12.87
2022-10-23T18:40:24.292Z,3.80
2022-10-23T18:43:43.083Z,2.47
2022-10-23T18:46:47.889Z,3.20
2022-10-23T18:49:50.755Z,2.40
2022-10-23T18:52:54.007Z,2.80
2022-10-23T18:59:02.782Z,5.03
2022-10-23T19:02:05.772Z,3.73
2022-10-23T19:05:09.267Z,2.92
2022-10-23T19:08:12.350Z,3.20
2022-10-23T19:11:16.910Z,2.75
2022-10-23T19:14:20.953Z,3.37
2022-10-23T19:17:25.841Z,3.07
2022-10-23T19:23:36.849Z,3.60
2022-10-23T19:29:45.638Z,4.87
2022-10-23T19:32:49.260Z,7.00
2022-10-23T19:35:51.838Z,5.60
2022-10-23T19:38:54.669Z,9.63
2022-10-23T19:41:58.543Z,8.40
2022-10-23T19:45:02.764Z,6.03
2022-10-23T19:48:05.659Z,5.50
2022-10-23T19:51:09.238Z,3.50
2022-10-23T19:54:12.092Z,6.47
2022-10-23T19:57:17.030Z,5.63
2022-10-23T20:00:24.176Z,4.93
2022-10-23T20:03:26.931Z,3.30
2022-10-23T20:06:32.403Z,5.53
2022-10-23T20:09:35.129Z,4.73
2022-10-23T20:12:37.738Z,4.35
2022-10-23T20:15:41.746Z,2.85
2022-10-23T20:18:44.530Z,2.60
2022-10-23T20:21:49.034Z,1.63
2022-10-23T20:24:51.903Z,1.97
2022-10-23T20:27:54.546Z,1.75
2022-10-23T20:30:58.659Z,1.58
2022-10-23T20:34:01.303Z,1.67
2022-10-23T20:37:03.941Z,1.30
2022-10-23T20:40:07.625Z,2.65
2022-10-23T20:43:10.288Z,3.37
2022-10-23T20:46:14.394Z,1.27
2022-10-23T20:49:17.667Z,1.33
2022-10-23T20:55:24.801Z,1.60
2022-10-23T20:58:27.463Z,1.55
2022-10-23T21:01:32.323Z,1.67
2022-10-23T21:04:35.126Z,1.30
2022-10-23T21:07:38.441Z,1.73
2022-10-23T21:10:46.156Z,1.70
2022-10-23T21:13:48.811Z,1.40
2022-10-23T21:16:53.232Z,1.55
2022-10-23T21:19:56.112Z,1.80
2022-10-23T21:22:59.104Z,1.95
2022-10-23T21:26:04.857Z,2.00
2022-10-23T21:29:18.870Z,1.10
2022-10-23T21:32:23.427Z,0.60
2022-10-23T21:35:29.981Z,1.27
2022-10-23T21:38:34.121Z,0.80
2022-10-23T21:41:36.873Z,1.07
2022-10-23T21:44:41.088Z,0.85
2022-10-23T21:47:46.331Z,1.10
2022-10-23T21:56:56.762Z,0.95
2022-10-23T21:59:59.937Z,1.10
2022-10-23T22:03:05.368Z,0.80
2022-10-23T22:06:10.902Z,1.50
2022-10-23T22:09:16.138Z,1.10
2022-10-23T22:12:19.488Z,1.43
2022-10-23T22:15:22.258Z,1.30
2022-10-23T22:18:27.220Z,1.27
2022-10-23T22:21:32.484Z,1.00
2022-10-23T22:24:37.942Z,1.00
2022-10-23T22:27:41.200Z,1.40
2022-10-23T22:30:44.376Z,0.60
2022-10-23T22:33:49.634Z,0.80
2022-10-23T22:36:53.312Z,1.47
2022-10-23T22:39:56.902Z,0.90
2022-10-23T22:43:00.120Z,0.87
2022-10-23T22:46:05.273Z,0.63
2022-10-23T22:49:10.927Z,1.30
2022-10-23T22:52:14.395Z,0.67
2022-10-23T22:58:21.036Z,1.27
2022-10-23T23:01:26.834Z,0.90
2022-10-23T23:04:39.175Z,0.97
2022-10-23T23:07:42.289Z,0.90
2022-10-23T23:10:53.649Z,0.57
2022-10-23T23:13:56.234Z,1.07
2022-10-23T23:16:59.049Z,0.73
2022-10-23T23:20:03.085Z,0.70
2022-10-23T23:23:05.958Z,0.97
2022-10-23T23:26:09.515Z,0.88
2022-10-23T23:29:12.964Z,1.10
2022-10-23T23:32:15.593Z,0.87
2022-10-23T23:35:20.244Z,1.13
2022-10-23T23:38:22.813Z,0.80
2022-10-23T23:41:26.062Z,0.93
2022-10-23T23:47:31.500Z,1.27
2022-10-23T23:50:35.804Z,0.93
2022-10-23T23:53:38.389Z,1.10
2022-10-23T23:56:41.084Z,1.00
2022-10-23T23:59:43.686Z,0.90
